sensor_id;sensor_type;location;lat;lon;timestamp;temperature;humidity
49042;DHT22;34859;51.608;11.462;2022-12-22T00:00:48;5.60;99.90
49042;DHT22;34859;51.608;11.462;2022-12-22T00:03:51;5.60;99.90
49042;DHT22;34859;51.608;11.462;2022-12-22T00:06:54;5.60;99.90
49042;DHT22;34859;51.608;11.462;2022-12-22T00:09:57;5.60;99.90
49042;DHT22;34859;51.608;11.462;2022-12-22T00:13:00;5.50;99.90
49042;DHT22;34859;51.608;11.462;2022-12-22T00:16:03;5.50;99.90
49042;DHT22;34859;51.608;11.462;2022-12-22T00:19:10;5.70;99.90
49042;DHT22;34859;51.608;11.462;2022-12-22T00:22:21;5.90;99.90
49042;DHT22;34859;51.608;11.462;2022-12-22T00:25:24;5.90;99.90
49042;DHT22;34859;51.608;11.462;2022-12-22T00:28:27;6.00;99.90
49042;DHT22;34859;51.608;11.462;2022-12-22T00:31:30;6.00;99.90
49042;DHT22;34859;51.608;11.462;2022-12-22T00:34:36;6.00;99.90
49042;DHT22;34859;51.608;11.462;2022-12-22T00:37:40;6.10;99.90
49042;DHT22;34859;51.608;11.462;2022-12-22T00:40:43;6.30;99.90
49042;DHT22;34859;51.608;11.462;2022-12-22T00:43:47;6.40;99.90
49042;DHT22;34859;51.608;11.462;2022-12-22T00:46:50;6.50;99.90
49042;DHT22;34859;51.608;11.462;2022-12-22T00:49:53;6.50;99.90
49042;DHT22;34859;51.608;11.462;2022-12-22T00:52:56;6.40;99.90
49042;DHT22;34859;51.608;11.462;2022-12-22T00:55:59;6.50;99.90
49042;DHT22;34859;51.608;11.462;2022-12-22T00:59:04;6.60;99.90
49042;DHT22;34859;51.608;11.462;2022-12-22T01:02:07;6.50;99.90
49042;DHT22;34859;51.608;11.462;2022-12-22T01:05:10;6.60;99.90
49042;DHT22;34859;51.608;11.462;2022-12-22T01:08:13;6.60;99.90
49042;DHT22;34859;51.608;11.462;2022-12-22T01:11:16;6.70;99.90
49042;DHT22;34859;51.608;11.462;2022-12-22T01:14:20;6.80;99.90
49042;DHT22;34859;51.608;11.462;2022-12-22T01:17:23;6.90;99.90
49042;DHT22;34859;51.608;11.462;2022-12-22T01:20:26;6.80;99.90
49042;DHT22;34859;51.608;11.462;2022-12-22T01:23:29;6.80;99.90
49042;DHT22;34859;51.608;11.462;2022-12-22T01:26:32;6.70;99.90
49042;DHT22;34859;51.608;11.462;2022-12-22T01:29:35;6.60;99.90
49042;DHT22;34859;51.608;11.462;2022-12-22T01:32:38;6.60;99.90
49042;DHT22;34859;51.608;11.462;2022-12-22T01:35:41;6.60;99.90
49042;DHT22;34859;51.608;11.462;2022-12-22T01:38:44;6.70;99.90
49042;DHT22;34859;51.608;11.462;2022-12-22T01:41:47;6.70;99.90
49042;DHT22;34859;51.608;11.462;2022-12-22T01:44:51;6.60;99.90
49042;DHT22;34859;51.608;11.462;2022-12-22T01:47:54;6.40;99.90
49042;DHT22;34859;51.608;11.462;2022-12-22T01:50:57;6.50;99.90
49042;DHT22;34859;51.608;11.462;2022-12-22T01:54:02;6.50;99.90
49042;DHT22;34859;51.608;11.462;2022-12-22T01:57:05;6.50;99.90
49042;DHT22;34859;51.608;11.462;2022-12-22T02:00:08;6.50;99.90
49042;DHT22;34859;51.608;11.462;2022-12-22T02:03:17;6.70;99.90
49042;DHT22;34859;51.608;11.462;2022-12-22T02:06:28;6.80;99.90
49042;DHT22;34859;51.608;11.462;2022-12-22T02:09:43;6.90;99.90
49042;DHT22;34859;51.608;11.462;2022-12-22T02:12:53;6.80;99.90
49042;DHT22;34859;51.608;11.462;2022-12-22T02:19:18;6.80;99.90
49042;DHT22;34859;51.608;11.462;2022-12-22T02:25:55;6.70;99.90
49042;DHT22;34859;51.608;11.462;2022-12-22T02:29:00;6.80;99.90
49042;DHT22;34859;51.608;11.462;2022-12-22T02:32:05;6.90;99.90
49042;DHT22;34859;51.608;11.462;2022-12-22T02:35:15;6.90;99.90
49042;DHT22;34859;51.608;11.462;2022-12-22T02:41:59;6.90;99.90
49042;DHT22;34859;51.608;11.462;2022-12-22T02:51:12;7.10;99.90
49042;DHT22;34859;51.608;11.462;2022-12-22T02:54:15;7.00;99.90
49042;DHT22;34859;51.608;11.462;2022-12-22T02:57:19;6.90;99.90
49042;DHT22;34859;51.608;11.462;2022-12-22T03:00:22;6.90;99.90
49042;DHT22;34859;51.608;11.462;2022-12-22T03:03:25;6.80;99.90
49042;DHT22;34859;51.608;11.462;2022-12-22T03:06:28;6.70;99.90
49042;DHT22;34859;51.608;11.462;2022-12-22T03:09:32;6.70;99.90
49042;DHT22;34859;51.608;11.462;2022-12-22T03:12:35;6.60;99.90
49042;DHT22;34859;51.608;11.462;2022-12-22T03:15:38;6.50;99.90
49042;DHT22;34859;51.608;11.462;2022-12-22T03:18:41;6.40;99.90
49042;DHT22;34859;51.608;11.462;2022-12-22T03:21:44;6.40;99.90
49042;DHT22;34859;51.608;11.462;2022-12-22T03:24:47;6.40;99.90
49042;DHT22;34859;51.608;11.462;2022-12-22T03:27:50;6.40;99.90
49042;DHT22;34859;51.608;11.462;2022-12-22T03:30:35;6.40;99.90
49042;DHT22;34859;51.608;11.462;2022-12-22T03:33:22;6.40;99.90
49042;DHT22;34859;51.608;11.462;2022-12-22T03:36:06;6.40;99.90
49042;DHT22;34859;51.608;11.462;2022-12-22T03:38:51;6.40;99.90
49042;DHT22;34859;51.608;11.462;2022-12-22T03:41:37;6.40;99.90
49042;DHT22;34859;51.608;11.462;2022-12-22T03:44:42;6.40;99.90
49042;DHT22;34859;51.608;11.462;2022-12-22T03:47:49;6.40;99.90
49042;DHT22;34859;51.608;11.462;2022-12-22T03:50:56;6.30;99.90
49042;DHT22;34859;51.608;11.462;2022-12-22T04:11:51;6.70;99.90
49042;DHT22;34859;51.608;11.462;2022-12-22T04:15:09;6.80;99.90
49042;DHT22;34859;51.608;11.462;2022-12-22T04:25:13;6.90;99.90
49042;DHT22;34859;51.608;11.462;2022-12-22T04:45:24;6.90;99.90
49042;DHT22;34859;51.608;11.462;2022-12-22T04:48:32;7.10;99.90
49042;DHT22;34859;51.608;11.462;2022-12-22T04:51:55;7.20;99.90
49042;DHT22;34859;51.608;11.462;2022-12-22T04:54:55;7.10;99.90
49042;DHT22;34859;51.608;11.462;2022-12-22T05:01:32;7.40;99.90
49042;DHT22;34859;51.608;11.462;2022-12-22T05:08:19;7.40;99.90
49042;DHT22;34859;51.608;11.462;2022-12-22T05:11:29;7.60;99.90
49042;DHT22;34859;51.608;11.462;2022-12-22T05:14:52;7.50;99.90
49042;DHT22;34859;51.608;11.462;2022-12-22T05:18:04;7.50;99.90
49042;DHT22;34859;51.608;11.462;2022-12-22T05:21:12;7.50;99.90
49042;DHT22;34859;51.608;11.462;2022-12-22T05:24:13;7.50;99.90
49042;DHT22;34859;51.608;11.462;2022-12-22T05:26:57;7.50;99.90
49042;DHT22;34859;51.608;11.462;2022-12-22T05:29:42;7.50;99.90
49042;DHT22;34859;51.608;11.462;2022-12-22T05:32:26;7.50;99.90
49042;DHT22;34859;51.608;11.462;2022-12-22T05:35:11;7.50;99.90
49042;DHT22;34859;51.608;11.462;2022-12-22T05:37:59;7.50;99.90
49042;DHT22;34859;51.608;11.462;2022-12-22T05:41:31;7.60;99.90
49042;DHT22;34859;51.608;11.462;2022-12-22T05:45:18;7.40;99.90
49042;DHT22;34859;51.608;11.462;2022-12-22T05:48:46;7.30;99.90
49042;DHT22;34859;51.608;11.462;2022-12-22T05:51:30;7.40;99.90
49042;DHT22;34859;51.608;11.462;2022-12-22T05:54:14;7.40;99.90
49042;DHT22;34859;51.608;11.462;2022-12-22T05:56:58;7.40;99.90
49042;DHT22;34859;51.608;11.462;2022-12-22T05:59:42;7.50;99.90
49042;DHT22;34859;51.608;11.462;2022-12-22T06:02:27;7.50;99.90
49042;DHT22;34859;51.608;11.462;2022-12-22T06:05:11;7.60;99.90
49042;DHT22;34859;51.608;11.462;2022-12-22T06:07:55;7.70;99.90
49042;DHT22;34859;51.608;11.462;2022-12-22T06:10:40;7.70;99.90
49042;DHT22;34859;51.608;11.462;2022-12-22T06:13:24;7.70;99.90
49042;DHT22;34859;51.608;11.462;2022-12-22T06:16:09;7.70;99.90
49042;DHT22;34859;51.608;11.462;2022-12-22T06:18:53;7.80;99.90
49042;DHT22;34859;51.608;11.462;2022-12-22T06:21:37;7.80;99.90
49042;DHT22;34859;51.608;11.462;2022-12-22T06:24:21;7.80;99.90
49042;DHT22;34859;51.608;11.462;2022-12-22T06:27:05;7.80;99.90
49042;DHT22;34859;51.608;11.462;2022-12-22T06:29:50;7.80;99.90
49042;DHT22;34859;51.608;11.462;2022-12-22T06:32:35;7.80;99.90
49042;DHT22;34859;51.608;11.462;2022-12-22T06:35:18;7.80;99.90
49042;DHT22;34859;51.608;11.462;2022-12-22T06:38:03;7.80;99.90
49042;DHT22;34859;51.608;11.462;2022-12-22T06:40:47;7.80;99.90
49042;DHT22;34859;51.608;11.462;2022-12-22T06:43:31;7.90;99.90
49042;DHT22;34859;51.608;11.462;2022-12-22T06:46:15;7.90;99.90
49042;DHT22;34859;51.608;11.462;2022-12-22T06:48:59;7.90;99.90
49042;DHT22;34859;51.608;11.462;2022-12-22T06:51:44;7.90;99.90
49042;DHT22;34859;51.608;11.462;2022-12-22T06:54:28;7.80;99.90
49042;DHT22;34859;51.608;11.462;2022-12-22T06:57:12;7.90;99.90
49042;DHT22;34859;51.608;11.462;2022-12-22T06:59:56;7.90;99.90
49042;DHT22;34859;51.608;11.462;2022-12-22T07:02:41;8.00;99.90
49042;DHT22;34859;51.608;11.462;2022-12-22T07:05:25;8.00;99.90
49042;DHT22;34859;51.608;11.462;2022-12-22T07:08:09;7.90;99.90
49042;DHT22;34859;51.608;11.462;2022-12-22T07:10:53;7.90;99.90
49042;DHT22;34859;51.608;11.462;2022-12-22T07:13:41;7.90;99.90
49042;DHT22;34859;51.608;11.462;2022-12-22T07:16:25;7.90;99.90
49042;DHT22;34859;51.608;11.462;2022-12-22T07:19:09;7.90;99.90
49042;DHT22;34859;51.608;11.462;2022-12-22T07:21:53;7.90;99.90
49042;DHT22;34859;51.608;11.462;2022-12-22T07:24:37;7.90;99.90
49042;DHT22;34859;51.608;11.462;2022-12-22T07:27:22;7.80;99.90
49042;DHT22;34859;51.608;11.462;2022-12-22T07:30:06;7.80;99.90
49042;DHT22;34859;51.608;11.462;2022-12-22T07:32:50;7.70;99.90
49042;DHT22;34859;51.608;11.462;2022-12-22T07:35:35;7.80;99.90
49042;DHT22;34859;51.608;11.462;2022-12-22T07:38:19;7.80;99.90
49042;DHT22;34859;51.608;11.462;2022-12-22T07:41:04;7.80;99.90
49042;DHT22;34859;51.608;11.462;2022-12-22T07:44:08;7.80;99.90
49042;DHT22;34859;51.608;11.462;2022-12-22T07:46:52;7.80;99.90
49042;DHT22;34859;51.608;11.462;2022-12-22T07:49:36;7.90;99.90
49042;DHT22;34859;51.608;11.462;2022-12-22T07:52:50;7.90;99.90
49042;DHT22;34859;51.608;11.462;2022-12-22T07:55:35;7.90;99.90
49042;DHT22;34859;51.608;11.462;2022-12-22T07:58:19;7.90;99.90
49042;DHT22;34859;51.608;11.462;2022-12-22T08:01:03;7.90;99.90
49042;DHT22;34859;51.608;11.462;2022-12-22T08:03:48;8.00;99.90
49042;DHT22;34859;51.608;11.462;2022-12-22T08:06:32;7.90;99.90
49042;DHT22;34859;51.608;11.462;2022-12-22T08:09:16;7.90;99.90
49042;DHT22;34859;51.608;11.462;2022-12-22T08:12:02;8.00;99.90
49042;DHT22;34859;51.608;11.462;2022-12-22T08:14:46;8.00;99.90
49042;DHT22;34859;51.608;11.462;2022-12-22T08:17:31;8.00;99.90
49042;DHT22;34859;51.608;11.462;2022-12-22T08:20:17;8.00;99.90
49042;DHT22;34859;51.608;11.462;2022-12-22T08:23:01;7.90;99.90
49042;DHT22;34859;51.608;11.462;2022-12-22T08:25:45;7.90;99.90
49042;DHT22;34859;51.608;11.462;2022-12-22T08:28:32;7.90;99.90
49042;DHT22;34859;51.608;11.462;2022-12-22T08:31:16;7.90;99.90
49042;DHT22;34859;51.608;11.462;2022-12-22T08:34:02;7.90;99.90
49042;DHT22;34859;51.608;11.462;2022-12-22T08:36:48;7.90;99.90
49042;DHT22;34859;51.608;11.462;2022-12-22T08:39:34;7.90;99.90
49042;DHT22;34859;51.608;11.462;2022-12-22T08:42:20;7.80;99.90
49042;DHT22;34859;51.608;11.462;2022-12-22T08:45:05;7.90;99.90
49042;DHT22;34859;51.608;11.462;2022-12-22T08:47:51;7.90;99.90
49042;DHT22;34859;51.608;11.462;2022-12-22T08:50:36;7.90;99.90
49042;DHT22;34859;51.608;11.462;2022-12-22T08:53:20;7.90;99.90
49042;DHT22;34859;51.608;11.462;2022-12-22T08:56:04;7.90;99.90
49042;DHT22;34859;51.608;11.462;2022-12-22T08:58:48;7.90;99.90
49042;DHT22;34859;51.608;11.462;2022-12-22T09:01:33;7.90;99.90
49042;DHT22;34859;51.608;11.462;2022-12-22T09:04:19;8.00;99.90
49042;DHT22;34859;51.608;11.462;2022-12-22T09:07:04;8.10;99.90
49042;DHT22;34859;51.608;11.462;2022-12-22T09:09:48;8.10;99.90
49042;DHT22;34859;51.608;11.462;2022-12-22T09:12:32;8.10;99.90
49042;DHT22;34859;51.608;11.462;2022-12-22T09:15:16;8.20;99.90
49042;DHT22;34859;51.608;11.462;2022-12-22T09:18:01;8.30;99.90
49042;DHT22;34859;51.608;11.462;2022-12-22T09:20:45;8.30;99.90
49042;DHT22;34859;51.608;11.462;2022-12-22T09:23:30;8.30;99.90
49042;DHT22;34859;51.608;11.462;2022-12-22T09:26:16;8.40;99.90
49042;DHT22;34859;51.608;11.462;2022-12-22T09:29:00;8.40;99.90
49042;DHT22;34859;51.608;11.462;2022-12-22T09:31:45;8.50;99.90
49042;DHT22;34859;51.608;11.462;2022-12-22T09:34:29;8.50;99.90
49042;DHT22;34859;51.608;11.462;2022-12-22T09:37:14;8.50;99.90
49042;DHT22;34859;51.608;11.462;2022-12-22T09:39:58;8.50;99.90
49042;DHT22;34859;51.608;11.462;2022-12-22T09:42:42;8.60;99.90
49042;DHT22;34859;51.608;11.462;2022-12-22T09:45:26;8.70;99.90
49042;DHT22;34859;51.608;11.462;2022-12-22T09:48:11;8.70;99.90
49042;DHT22;34859;51.608;11.462;2022-12-22T09:50:56;8.80;99.90
49042;DHT22;34859;51.608;11.462;2022-12-22T09:53:42;8.90;99.90
49042;DHT22;34859;51.608;11.462;2022-12-22T09:56:27;9.00;99.90
49042;DHT22;34859;51.608;11.462;2022-12-22T09:59:13;9.00;99.90
49042;DHT22;34859;51.608;11.462;2022-12-22T10:08:10;9.10;99.90
49042;DHT22;34859;51.608;11.462;2022-12-22T10:10:55;9.10;99.90
49042;DHT22;34859;51.608;11.462;2022-12-22T10:13:39;9.20;99.90
49042;DHT22;34859;51.608;11.462;2022-12-22T10:16:24;9.20;99.90
49042;DHT22;34859;51.608;11.462;2022-12-22T10:19:09;9.20;99.90
49042;DHT22;34859;51.608;11.462;2022-12-22T10:21:54;9.30;99.90
49042;DHT22;34859;51.608;11.462;2022-12-22T10:24:38;9.30;99.90
49042;DHT22;34859;51.608;11.462;2022-12-22T10:27:23;9.30;99.90
49042;DHT22;34859;51.608;11.462;2022-12-22T10:30:23;9.40;99.90
49042;DHT22;34859;51.608;11.462;2022-12-22T10:33:09;9.40;99.90
49042;DHT22;34859;51.608;11.462;2022-12-22T10:35:54;9.40;99.90
49042;DHT22;34859;51.608;11.462;2022-12-22T10:38:53;9.40;99.90
49042;DHT22;34859;51.608;11.462;2022-12-22T10:41:39;9.30;99.90
49042;DHT22;34859;51.608;11.462;2022-12-22T10:44:28;9.40;99.90
49042;DHT22;34859;51.608;11.462;2022-12-22T10:47:14;9.40;99.90
49042;DHT22;34859;51.608;11.462;2022-12-22T10:49:58;9.40;99.90
49042;DHT22;34859;51.608;11.462;2022-12-22T10:52:48;9.40;99.90
49042;DHT22;34859;51.608;11.462;2022-12-22T10:55:32;9.50;99.90
49042;DHT22;34859;51.608;11.462;2022-12-22T10:58:18;9.50;99.90
49042;DHT22;34859;51.608;11.462;2022-12-22T11:01:04;9.50;99.90
49042;DHT22;34859;51.608;11.462;2022-12-22T11:03:48;9.50;99.90
49042;DHT22;34859;51.608;11.462;2022-12-22T11:06:32;9.60;99.90
49042;DHT22;34859;51.608;11.462;2022-12-22T11:09:16;9.60;99.90
49042;DHT22;34859;51.608;11.462;2022-12-22T11:12:37;9.50;99.90
49042;DHT22;34859;51.608;11.462;2022-12-22T11:18:09;9.60;99.90
49042;DHT22;34859;51.608;11.462;2022-12-22T11:26:53;9.70;99.90
49042;DHT22;34859;51.608;11.462;2022-12-22T11:35:50;9.70;99.90
49042;DHT22;34859;51.608;11.462;2022-12-22T11:38:41;9.70;99.90
49042;DHT22;34859;51.608;11.462;2022-12-22T11:41:39;9.70;99.90
49042;DHT22;34859;51.608;11.462;2022-12-22T11:44:40;9.60;99.90
49042;DHT22;34859;51.608;11.462;2022-12-22T11:50:27;9.50;99.90
49042;DHT22;34859;51.608;11.462;2022-12-22T11:56:21;9.40;99.90
49042;DHT22;34859;51.608;11.462;2022-12-22T12:01:54;9.40;99.90
49042;DHT22;34859;51.608;11.462;2022-12-22T12:07:50;9.50;99.90
49042;DHT22;34859;51.608;11.462;2022-12-22T12:31:03;9.50;99.90
49042;DHT22;34859;51.608;11.462;2022-12-22T12:33:50;9.50;99.90
49042;DHT22;34859;51.608;11.462;2022-12-22T12:36:52;9.50;99.90
49042;DHT22;34859;51.608;11.462;2022-12-22T12:40:01;9.60;99.90
49042;DHT22;34859;51.608;11.462;2022-12-22T12:42:48;9.60;99.90
49042;DHT22;34859;51.608;11.462;2022-12-22T12:51:44;9.80;99.90
49042;DHT22;34859;51.608;11.462;2022-12-22T12:57:29;9.80;99.90
49042;DHT22;34859;51.608;11.462;2022-12-22T13:03:35;9.80;99.90
49042;DHT22;34859;51.608;11.462;2022-12-22T13:09:23;9.80;99.90
49042;DHT22;34859;51.608;11.462;2022-12-22T13:20:59;9.80;99.90
49042;DHT22;34859;51.608;11.462;2022-12-22T13:23:55;9.80;99.90
49042;DHT22;34859;51.608;11.462;2022-12-22T13:26:40;9.80;99.90
49042;DHT22;34859;51.608;11.462;2022-12-22T13:29:39;9.90;99.90
49042;DHT22;34859;51.608;11.462;2022-12-22T13:32:25;9.90;99.90
49042;DHT22;34859;51.608;11.462;2022-12-22T13:35:21;9.90;99.90
49042;DHT22;34859;51.608;11.462;2022-12-22T13:38:05;9.90;99.90
49042;DHT22;34859;51.608;11.462;2022-12-22T13:40:49;10.00;99.90
49042;DHT22;34859;51.608;11.462;2022-12-22T13:43:34;9.90;99.90
49042;DHT22;34859;51.608;11.462;2022-12-22T13:46:18;9.90;99.90
49042;DHT22;34859;51.608;11.462;2022-12-22T13:49:02;9.80;99.90
49042;DHT22;34859;51.608;11.462;2022-12-22T13:51:50;9.80;99.90
49042;DHT22;34859;51.608;11.462;2022-12-22T13:54:35;9.80;99.90
49042;DHT22;34859;51.608;11.462;2022-12-22T13:57:20;9.80;99.90
49042;DHT22;34859;51.608;11.462;2022-12-22T14:00:05;9.80;99.90
49042;DHT22;34859;51.608;11.462;2022-12-22T14:02:49;9.80;99.90
49042;DHT22;34859;51.608;11.462;2022-12-22T14:05:33;9.70;99.90
49042;DHT22;34859;51.608;11.462;2022-12-22T14:08:21;9.70;99.90
49042;DHT22;34859;51.608;11.462;2022-12-22T14:11:06;9.70;99.90
49042;DHT22;34859;51.608;11.462;2022-12-22T14:13:51;9.70;99.90
49042;DHT22;34859;51.608;11.462;2022-12-22T14:16:41;9.70;99.90
49042;DHT22;34859;51.608;11.462;2022-12-22T14:19:27;9.70;99.90
49042;DHT22;34859;51.608;11.462;2022-12-22T14:22:14;9.60;99.90
49042;DHT22;34859;51.608;11.462;2022-12-22T14:25:02;9.50;99.90
49042;DHT22;34859;51.608;11.462;2022-12-22T14:27:56;9.50;99.90
49042;DHT22;34859;51.608;11.462;2022-12-22T14:30:41;9.50;99.90
49042;DHT22;34859;51.608;11.462;2022-12-22T14:33:27;9.40;99.90
49042;DHT22;34859;51.608;11.462;2022-12-22T14:38:58;9.30;99.90
49042;DHT22;34859;51.608;11.462;2022-12-22T14:41:46;9.30;99.90
49042;DHT22;34859;51.608;11.462;2022-12-22T14:44:34;9.20;99.90
49042;DHT22;34859;51.608;11.462;2022-12-22T14:47:24;9.30;99.90
49042;DHT22;34859;51.608;11.462;2022-12-22T14:50:15;9.30;99.90
49042;DHT22;34859;51.608;11.462;2022-12-22T14:53:01;9.30;99.90
49042;DHT22;34859;51.608;11.462;2022-12-22T14:55:47;9.30;99.90
49042;DHT22;34859;51.608;11.462;2022-12-22T14:58:33;9.30;99.90
49042;DHT22;34859;51.608;11.462;2022-12-22T15:04:15;9.20;99.90
49042;DHT22;34859;51.608;11.462;2022-12-22T15:07:04;9.10;99.90
49042;DHT22;34859;51.608;11.462;2022-12-22T15:09:49;9.00;99.90
49042;DHT22;34859;51.608;11.462;2022-12-22T15:12:33;8.90;99.90
49042;DHT22;34859;51.608;11.462;2022-12-22T15:15:19;8.80;99.90
49042;DHT22;34859;51.608;11.462;2022-12-22T15:18:04;8.60;99.90
49042;DHT22;34859;51.608;11.462;2022-12-22T15:20:48;8.50;99.90
49042;DHT22;34859;51.608;11.462;2022-12-22T15:23:32;8.40;99.90
49042;DHT22;34859;51.608;11.462;2022-12-22T15:26:16;8.30;99.90
49042;DHT22;34859;51.608;11.462;2022-12-22T15:29:00;8.20;99.90
49042;DHT22;34859;51.608;11.462;2022-12-22T15:31:44;8.10;99.90
49042;DHT22;34859;51.608;11.462;2022-12-22T15:34:30;8.00;99.90
49042;DHT22;34859;51.608;11.462;2022-12-22T15:37:15;8.00;99.90
49042;DHT22;34859;51.608;11.462;2022-12-22T15:39:59;7.90;99.90
49042;DHT22;34859;51.608;11.462;2022-12-22T15:42:43;7.80;99.90
49042;DHT22;34859;51.608;11.462;2022-12-22T15:45:27;7.80;99.90
49042;DHT22;34859;51.608;11.462;2022-12-22T15:48:21;7.70;99.90
49042;DHT22;34859;51.608;11.462;2022-12-22T15:51:07;7.50;99.90
49042;DHT22;34859;51.608;11.462;2022-12-22T15:53:54;7.30;99.90
49042;DHT22;34859;51.608;11.462;2022-12-22T15:56:39;7.20;99.90
49042;DHT22;34859;51.608;11.462;2022-12-22T15:59:23;7.10;99.90
49042;DHT22;34859;51.608;11.462;2022-12-22T16:02:11;7.00;99.90
49042;DHT22;34859;51.608;11.462;2022-12-22T16:04:55;7.00;99.90
49042;DHT22;34859;51.608;11.462;2022-12-22T16:07:40;6.90;99.90
49042;DHT22;34859;51.608;11.462;2022-12-22T16:10:29;7.00;99.90
49042;DHT22;34859;51.608;11.462;2022-12-22T16:13:14;7.00;99.90
49042;DHT22;34859;51.608;11.462;2022-12-22T16:15:58;7.00;99.90
49042;DHT22;34859;51.608;11.462;2022-12-22T16:18:42;7.10;99.90
49042;DHT22;34859;51.608;11.462;2022-12-22T16:21:29;7.00;99.90
49042;DHT22;34859;51.608;11.462;2022-12-22T16:24:19;7.20;99.90
49042;DHT22;34859;51.608;11.462;2022-12-22T16:27:05;7.20;99.90
49042;DHT22;34859;51.608;11.462;2022-12-22T16:29:50;7.20;99.90
49042;DHT22;34859;51.608;11.462;2022-12-22T16:32:34;7.10;99.90
49042;DHT22;34859;51.608;11.462;2022-12-22T16:35:20;7.20;99.90
49042;DHT22;34859;51.608;11.462;2022-12-22T16:38:04;7.10;99.90
49042;DHT22;34859;51.608;11.462;2022-12-22T16:40:49;7.10;99.90
49042;DHT22;34859;51.608;11.462;2022-12-22T16:43:35;7.00;99.90
49042;DHT22;34859;51.608;11.462;2022-12-22T16:46:22;6.90;99.90
49042;DHT22;34859;51.608;11.462;2022-12-22T16:49:06;6.70;99.90
49042;DHT22;34859;51.608;11.462;2022-12-22T16:51:52;6.60;99.90
49042;DHT22;34859;51.608;11.462;2022-12-22T16:54:36;6.60;99.90
49042;DHT22;34859;51.608;11.462;2022-12-22T16:57:20;6.60;99.90
49042;DHT22;34859;51.608;11.462;2022-12-22T17:00:05;6.60;99.90
49042;DHT22;34859;51.608;11.462;2022-12-22T17:02:50;6.70;99.90
49042;DHT22;34859;51.608;11.462;2022-12-22T17:05:46;6.70;99.90
49042;DHT22;34859;51.608;11.462;2022-12-22T17:08:33;6.60;99.90
49042;DHT22;34859;51.608;11.462;2022-12-22T17:11:20;6.60;99.90
49042;DHT22;34859;51.608;11.462;2022-12-22T17:14:06;6.50;99.90
49042;DHT22;34859;51.608;11.462;2022-12-22T17:16:57;6.50;99.90
49042;DHT22;34859;51.608;11.462;2022-12-22T17:19:42;6.50;99.90
49042;DHT22;34859;51.608;11.462;2022-12-22T17:22:27;6.60;99.90
49042;DHT22;34859;51.608;11.462;2022-12-22T17:25:17;6.50;99.90
49042;DHT22;34859;51.608;11.462;2022-12-22T17:28:02;6.60;99.90
49042;DHT22;34859;51.608;11.462;2022-12-22T17:30:47;6.50;99.90
49042;DHT22;34859;51.608;11.462;2022-12-22T17:33:31;6.50;99.90
49042;DHT22;34859;51.608;11.462;2022-12-22T17:36:18;6.40;99.90
49042;DHT22;34859;51.608;11.462;2022-12-22T17:39:02;6.50;99.90
49042;DHT22;34859;51.608;11.462;2022-12-22T17:41:47;6.50;99.90
49042;DHT22;34859;51.608;11.462;2022-12-22T17:44:31;6.40;99.90
49042;DHT22;34859;51.608;11.462;2022-12-22T17:47:16;6.40;99.90
49042;DHT22;34859;51.608;11.462;2022-12-22T17:50:01;6.50;99.90
49042;DHT22;34859;51.608;11.462;2022-12-22T17:52:45;6.70;99.90
49042;DHT22;34859;51.608;11.462;2022-12-22T17:55:30;6.80;99.90
49042;DHT22;34859;51.608;11.462;2022-12-22T17:58:15;7.00;99.90
49042;DHT22;34859;51.608;11.462;2022-12-22T18:00:59;7.00;99.90
49042;DHT22;34859;51.608;11.462;2022-12-22T18:03:43;7.30;99.90
49042;DHT22;34859;51.608;11.462;2022-12-22T18:06:29;7.30;99.90
49042;DHT22;34859;51.608;11.462;2022-12-22T18:09:17;7.20;99.90
49042;DHT22;34859;51.608;11.462;2022-12-22T18:12:02;6.80;99.90
49042;DHT22;34859;51.608;11.462;2022-12-22T18:14:47;6.40;99.90
49042;DHT22;34859;51.608;11.462;2022-12-22T18:17:32;6.20;99.90
49042;DHT22;34859;51.608;11.462;2022-12-22T18:20:17;5.90;99.90
49042;DHT22;34859;51.608;11.462;2022-12-22T18:23:02;5.70;99.90
49042;DHT22;34859;51.608;11.462;2022-12-22T18:25:46;5.50;99.90
49042;DHT22;34859;51.608;11.462;2022-12-22T18:28:30;5.40;99.90
49042;DHT22;34859;51.608;11.462;2022-12-22T18:31:14;5.30;99.90
49042;DHT22;34859;51.608;11.462;2022-12-22T18:33:58;5.10;99.90
49042;DHT22;34859;51.608;11.462;2022-12-22T18:36:43;4.90;99.90
49042;DHT22;34859;51.608;11.462;2022-12-22T18:39:28;5.00;99.90
49042;DHT22;34859;51.608;11.462;2022-12-22T18:42:18;4.90;99.90
49042;DHT22;34859;51.608;11.462;2022-12-22T18:45:03;5.00;99.90
49042;DHT22;34859;51.608;11.462;2022-12-22T18:47:47;5.00;99.90
49042;DHT22;34859;51.608;11.462;2022-12-22T18:50:31;5.10;99.90
49042;DHT22;34859;51.608;11.462;2022-12-22T18:53:21;5.00;99.90
49042;DHT22;34859;51.608;11.462;2022-12-22T18:56:07;5.00;99.90
49042;DHT22;34859;51.608;11.462;2022-12-22T18:58:52;4.90;99.90
49042;DHT22;34859;51.608;11.462;2022-12-22T19:01:36;4.90;99.90
49042;DHT22;34859;51.608;11.462;2022-12-22T19:04:21;4.70;99.90
49042;DHT22;34859;51.608;11.462;2022-12-22T19:07:10;4.60;99.90
49042;DHT22;34859;51.608;11.462;2022-12-22T19:09:56;4.60;99.90
49042;DHT22;34859;51.608;11.462;2022-12-22T19:12:41;4.50;99.90
49042;DHT22;34859;51.608;11.462;2022-12-22T19:15:29;4.50;99.90
49042;DHT22;34859;51.608;11.462;2022-12-22T19:18:17;4.30;99.90
49042;DHT22;34859;51.608;11.462;2022-12-22T19:21:02;4.20;99.90
49042;DHT22;34859;51.608;11.462;2022-12-22T19:23:46;4.20;99.90
49042;DHT22;34859;51.608;11.462;2022-12-22T19:26:30;4.00;99.90
49042;DHT22;34859;51.608;11.462;2022-12-22T19:29:14;3.80;99.90
49042;DHT22;34859;51.608;11.462;2022-12-22T19:32:01;4.10;99.90
49042;DHT22;34859;51.608;11.462;2022-12-22T19:34:45;4.20;99.90
49042;DHT22;34859;51.608;11.462;2022-12-22T19:37:29;4.10;99.90
49042;DHT22;34859;51.608;11.462;2022-12-22T19:40:14;3.90;99.90
49042;DHT22;34859;51.608;11.462;2022-12-22T19:42:58;3.90;99.90
49042;DHT22;34859;51.608;11.462;2022-12-22T19:45:42;3.80;99.90
49042;DHT22;34859;51.608;11.462;2022-12-22T19:48:26;3.70;99.90
49042;DHT22;34859;51.608;11.462;2022-12-22T19:51:11;3.50;99.90
49042;DHT22;34859;51.608;11.462;2022-12-22T19:53:55;3.30;99.90
49042;DHT22;34859;51.608;11.462;2022-12-22T19:56:39;3.20;99.90
49042;DHT22;34859;51.608;11.462;2022-12-22T19:59:34;3.20;99.90
49042;DHT22;34859;51.608;11.462;2022-12-22T20:05:03;3.20;99.90
49042;DHT22;34859;51.608;11.462;2022-12-22T20:07:48;3.30;99.90
49042;DHT22;34859;51.608;11.462;2022-12-22T20:10:33;3.50;99.90
49042;DHT22;34859;51.608;11.462;2022-12-22T20:13:18;3.50;99.90
49042;DHT22;34859;51.608;11.462;2022-12-22T20:16:03;3.80;99.90
49042;DHT22;34859;51.608;11.462;2022-12-22T20:18:47;3.90;99.90
49042;DHT22;34859;51.608;11.462;2022-12-22T20:21:32;4.00;99.90
49042;DHT22;34859;51.608;11.462;2022-12-22T20:24:18;4.10;99.90
49042;DHT22;34859;51.608;11.462;2022-12-22T20:27:04;4.20;99.90